createdAt,value
2018-01-15T00:00:21.316Z,1022.91
2018-01-15T00:01:21.731Z,1022.91
2018-01-15T00:02:22.145Z,1022.89
2018-01-15T00:03:22.560Z,1022.88
2018-01-15T00:04:22.977Z,1022.81
2018-01-15T00:05:23.392Z,1022.81
2018-01-15T00:06:23.811Z,1022.79
2018-01-15T00:07:24.222Z,1022.78
2018-01-15T00:08:24.640Z,1022.79
2018-01-15T00:09:25.053Z,1022.80
2018-01-15T00:10:25.472Z,1022.73
2018-01-15T00:11:25.887Z,1022.71
2018-01-15T00:12:26.305Z,1022.74
2018-01-15T00:13:26.720Z,1022.74
2018-01-15T00:14:27.139Z,1022.76
2018-01-15T00:15:27.553Z,1022.71
2018-01-15T00:16:27.959Z,1022.73
2018-01-15T00:17:28.393Z,1022.71
2018-01-15T00:18:28.790Z,1022.67
2018-01-15T00:19:29.208Z,1022.71
2018-01-15T00:20:29.626Z,1022.72
2018-01-15T00:21:30.040Z,1022.70
2018-01-15T00:22:30.455Z,1022.66
2018-01-15T00:23:30.889Z,1022.68
2018-01-15T00:24:31.287Z,1022.65
2018-01-15T00:25:31.715Z,1022.62
2018-01-15T00:26:32.120Z,1022.61
2018-01-15T00:27:32.556Z,1022.60
2018-01-15T00:28:32.968Z,1022.58
2018-01-15T00:29:33.373Z,1022.57
2018-01-15T00:30:33.776Z,1022.58
2018-01-15T00:31:34.192Z,1022.57
2018-01-15T00:32:34.611Z,1022.54
2018-01-15T00:33:35.025Z,1022.53
2018-01-15T00:34:35.435Z,1022.51
2018-01-15T00:35:35.855Z,1022.51
2018-01-15T00:36:36.271Z,1022.54
2018-01-15T00:37:36.684Z,1022.54
2018-01-15T00:38:37.123Z,1022.58
2018-01-15T00:39:37.514Z,1022.55
2018-01-15T00:40:37.929Z,1022.57
2018-01-15T00:41:38.344Z,1022.57
2018-01-15T00:42:38.758Z,1022.56
2018-01-15T00:43:39.176Z,1022.58
2018-01-15T00:44:39.591Z,1022.57
2018-01-15T00:45:40.014Z,1022.60
2018-01-15T00:46:40.451Z,1022.54
2018-01-15T00:47:40.840Z,1022.54
2018-01-15T00:48:41.252Z,1022.52
2018-01-15T00:49:41.678Z,1022.53
2018-01-15T00:50:42.092Z,1022.44
2018-01-15T00:51:42.501Z,1022.48
2018-01-15T00:52:42.912Z,1022.48
2018-01-15T00:53:43.404Z,1022.48
2018-01-15T00:54:43.743Z,1022.42
2018-01-15T00:57:17.301Z,1022.39
2018-01-15T00:58:17.707Z,1022.32
2018-01-15T01:00:12.283Z,1022.30
2018-01-15T01:01:12.701Z,1022.28
2018-01-15T01:03:07.271Z,1022.25
2018-01-15T01:04:07.673Z,1022.27
2018-01-15T01:06:02.239Z,1022.26
2018-01-15T01:07:02.659Z,1022.18
2018-01-15T01:08:58.224Z,1022.26
2018-01-15T01:09:58.631Z,1022.28
2018-01-15T01:11:53.204Z,1022.21
2018-01-15T01:12:53.622Z,1022.18
2018-01-15T01:14:49.194Z,1022.16
2018-01-15T01:15:49.600Z,1022.13
2018-01-15T01:17:44.165Z,1022.04
2018-01-15T01:18:44.589Z,1022.12
2018-01-15T01:20:39.217Z,1022.11
2018-01-15T01:21:39.582Z,1022.12
2018-01-15T01:23:34.165Z,1022.10
2018-01-15T01:24:34.569Z,1022.04
2018-01-15T01:26:29.150Z,1021.97
2018-01-15T01:27:29.632Z,1021.97
2018-01-15T01:29:24.152Z,1021.94
2018-01-15T01:30:24.555Z,1021.95
2018-01-15T01:32:19.135Z,1021.89
2018-01-15T01:33:19.548Z,1021.86
2018-01-15T01:35:15.133Z,1021.83
2018-01-15T01:36:15.536Z,1021.88
2018-01-15T01:38:11.100Z,1021.84
2018-01-15T01:39:11.508Z,1021.76
2018-01-15T01:41:06.133Z,1021.73
2018-01-15T01:42:06.505Z,1021.67
2018-01-15T01:44:01.139Z,1021.66
2018-01-15T01:45:01.555Z,1021.64
2018-01-15T01:46:57.141Z,1021.59
2018-01-15T01:47:57.547Z,1021.59
2018-01-15T01:49:52.144Z,1021.56
2018-01-15T01:50:52.544Z,1021.59
2018-01-15T01:52:47.130Z,1021.58
2018-01-15T01:53:47.540Z,1021.51
2018-01-15T01:55:42.125Z,1021.44
2018-01-15T01:56:42.529Z,1021.51
2018-01-15T01:58:38.080Z,1021.45
2018-01-15T01:59:38.497Z,1021.49
2018-01-15T02:01:34.077Z,1021.47
2018-01-15T02:02:34.474Z,1021.40
2018-01-15T02:04:29.046Z,1021.31
2018-01-15T02:05:29.461Z,1021.28
2018-01-15T02:07:25.043Z,1021.27
2018-01-15T02:08:25.432Z,1021.22
2018-01-15T02:10:20.054Z,1021.20
2018-01-15T02:11:20.430Z,1021.17
2018-01-15T02:13:15.002Z,1021.12
2018-01-15T02:14:15.434Z,1021.12
2018-01-15T02:16:10.017Z,1021.07
2018-01-15T02:17:10.423Z,1021.06
2018-01-15T02:19:04.996Z,1021.03
2018-01-15T02:20:05.427Z,1021.03
2018-01-15T02:22:00.012Z,1021.11
2018-01-15T02:23:00.413Z,1021.03
2018-01-15T02:24:00.823Z,1020.96
2018-01-15T02:25:01.236Z,1020.99
2018-01-15T02:26:01.653Z,1020.94
2018-01-15T02:27:02.074Z,1020.92
2018-01-15T02:28:02.489Z,1020.96
2018-01-15T02:29:02.899Z,1020.86
2018-01-15T02:30:03.314Z,1020.82
2018-01-15T02:31:03.730Z,1020.80
2018-01-15T02:32:04.147Z,1020.79
2018-01-15T02:33:04.564Z,1020.80
2018-01-15T02:34:04.977Z,1020.80
2018-01-15T02:35:05.396Z,1020.81
2018-01-15T02:36:05.807Z,1020.83
2018-01-15T02:37:06.224Z,1020.83
2018-01-15T02:38:06.646Z,1020.80
2018-01-15T02:39:07.049Z,1020.80
2018-01-15T02:40:07.471Z,1020.75
2018-01-15T02:41:07.887Z,1020.76
2018-01-15T02:42:08.304Z,1020.73
2018-01-15T02:43:08.714Z,1020.75
2018-01-15T02:44:09.130Z,1020.73
2018-01-15T02:45:09.549Z,1020.65
2018-01-15T02:46:09.955Z,1020.67
2018-01-15T02:47:10.372Z,1020.65
2018-01-15T02:48:10.797Z,1020.60
2018-01-15T02:49:11.201Z,1020.61
2018-01-15T02:50:11.623Z,1020.55
2018-01-15T02:51:12.038Z,1020.56
2018-01-15T02:52:12.454Z,1020.52
2018-01-15T02:53:12.867Z,1020.51
2018-01-15T02:54:13.285Z,1020.50
2018-01-15T02:55:13.738Z,1020.48
2018-01-15T02:56:14.114Z,1020.50
2018-01-15T02:57:14.530Z,1020.50
2018-01-15T02:58:14.945Z,1020.49
2018-01-15T02:59:15.361Z,1020.49
2018-01-15T03:00:15.773Z,1020.47
2018-01-15T03:01:16.184Z,1020.47
2018-01-15T03:02:16.603Z,1020.50
2018-01-15T03:03:17.021Z,1020.41
2018-01-15T03:04:17.434Z,1020.37
2018-01-15T03:05:17.856Z,1020.32
2018-01-15T03:06:18.284Z,1020.34
2018-01-15T03:07:18.683Z,1020.31
2018-01-15T03:08:19.112Z,1020.28
2018-01-15T03:09:19.527Z,1020.30
2018-01-15T03:10:19.929Z,1020.26
2018-01-15T03:11:20.346Z,1020.31
2018-01-15T03:12:20.756Z,1020.34
2018-01-15T03:13:21.173Z,1020.30
2018-01-15T03:14:21.584Z,1020.28
2018-01-15T03:15:22.003Z,1020.32
2018-01-15T03:16:22.418Z,1020.36
2018-01-15T03:17:22.834Z,1020.32
2018-01-15T03:18:23.249Z,1020.27
2018-01-15T03:19:23.664Z,1020.32
2018-01-15T03:20:24.080Z,1020.25
2018-01-15T03:21:24.512Z,1020.24
2018-01-15T03:22:24.914Z,1020.17
2018-01-15T03:23:25.323Z,1020.16
2018-01-15T03:24:25.738Z,1020.17
2018-01-15T03:25:26.155Z,1020.16
2018-01-15T03:26:26.568Z,1020.11
2018-01-15T03:27:26.982Z,1020.08
2018-01-15T03:28:27.401Z,1020.04
2018-01-15T03:29:27.814Z,1019.98
2018-01-15T03:30:28.234Z,1019.97
2018-01-15T03:33:01.784Z,1019.87
2018-01-15T03:34:02.186Z,1019.82
2018-01-15T03:35:57.750Z,1019.82
2018-01-15T03:36:58.169Z,1019.79
2018-01-15T03:38:52.769Z,1019.84
2018-01-15T03:39:53.167Z,1019.84
2018-01-15T03:41:48.716Z,1019.86
2018-01-15T03:42:49.136Z,1019.82
2018-01-15T03:44:43.722Z,1019.82
2018-01-15T03:45:44.128Z,1019.82
2018-01-15T03:47:38.698Z,1019.82
2018-01-15T03:48:39.116Z,1019.78
2018-01-15T03:50:33.706Z,1019.76
2018-01-15T03:51:34.110Z,1019.68
2018-01-15T03:53:29.684Z,1019.67
2018-01-15T03:54:30.086Z,1019.65
2018-01-15T03:56:24.775Z,1019.65
2018-01-15T03:57:25.128Z,1019.65
2018-01-15T03:59:19.696Z,1019.64
2018-01-15T04:00:20.096Z,1019.65
2018-01-15T04:02:14.661Z,1019.54
2018-01-15T04:03:15.092Z,1019.58
2018-01-15T04:05:09.674Z,1019.53
2018-01-15T04:06:10.089Z,1019.52
2018-01-15T04:08:04.648Z,1019.48
2018-01-15T04:09:05.094Z,1019.46
2018-01-15T04:11:00.635Z,1019.42
2018-01-15T04:12:01.032Z,1019.42
2018-01-15T04:13:56.607Z,1019.40
2018-01-15T04:14:57.007Z,1019.36
2018-01-15T04:16:52.556Z,1019.41
2018-01-15T04:17:52.975Z,1019.38
2018-01-15T04:19:48.554Z,1019.33
2018-01-15T04:20:48.962Z,1019.37
2018-01-15T04:22:43.532Z,1019.38
2018-01-15T04:23:43.959Z,1019.34
2018-01-15T04:24:44.370Z,1019.39
2018-01-15T04:25:44.821Z,1019.33
2018-01-15T04:26:45.196Z,1019.30
2018-01-15T04:27:45.626Z,1019.33
2018-01-15T04:28:46.029Z,1019.33
2018-01-15T04:29:46.452Z,1019.32
2018-01-15T04:30:46.857Z,1019.26
2018-01-15T04:31:47.275Z,1019.25
2018-01-15T04:32:47.694Z,1019.23
2018-01-15T04:33:48.106Z,1019.21
2018-01-15T04:34:48.518Z,1019.12
2018-01-15T04:35:48.936Z,1019.10
2018-01-15T04:36:49.352Z,1019.08
2018-01-15T04:37:49.767Z,1019.06
2018-01-15T04:38:50.188Z,1019.06
2018-01-15T04:39:50.599Z,1019.01
2018-01-15T04:40:51.015Z,1018.96
2018-01-15T04:41:51.432Z,1018.91
2018-01-15T04:42:51.849Z,1018.92
2018-01-15T04:43:52.264Z,1018.89
2018-01-15T04:44:52.680Z,1018.94
2018-01-15T04:45:53.094Z,1018.94
2018-01-15T04:46:53.508Z,1018.95
2018-01-15T04:47:53.924Z,1018.93
2018-01-15T04:48:54.402Z,1018.89
2018-01-15T04:49:54.783Z,1018.93
2018-01-15T04:50:55.179Z,1018.91
2018-01-15T04:51:55.592Z,1018.90
2018-01-15T04:52:56.037Z,1018.85
2018-01-15T04:53:56.421Z,1018.84
2018-01-15T04:54:56.941Z,1018.80
2018-01-15T04:55:57.246Z,1018.76
2018-01-15T04:56:57.665Z,1018.80
2018-01-15T04:57:58.080Z,1018.77
2018-01-15T04:58:58.494Z,1018.75
2018-01-15T04:59:58.912Z,1018.76
2018-01-15T05:00:59.332Z,1018.70
2018-01-15T05:01:59.740Z,1018.71
2018-01-15T05:03:00.163Z,1018.67
2018-01-15T05:04:00.575Z,1018.67
2018-01-15T05:05:00.991Z,1018.62
2018-01-15T05:06:01.406Z,1018.63
2018-01-15T05:07:01.826Z,1018.63
2018-01-15T05:08:02.237Z,1018.58
2018-01-15T05:09:02.655Z,1018.62
2018-01-15T05:10:03.069Z,1018.59
2018-01-15T05:11:03.493Z,1018.58
2018-01-15T05:12:03.903Z,1018.54
2018-01-15T05:13:04.322Z,1018.56
2018-01-15T05:14:04.735Z,1018.51
2018-01-15T05:15:05.154Z,1018.51
2018-01-15T05:16:05.566Z,1018.47
2018-01-15T05:17:05.981Z,1018.51
2018-01-15T05:18:06.400Z,1018.44
2018-01-15T05:19:06.809Z,1018.37
2018-01-15T05:20:07.325Z,1018.37
2018-01-15T05:21:07.643Z,1018.40
2018-01-15T05:22:08.055Z,1018.40
2018-01-15T05:23:08.482Z,1018.39
2018-01-15T05:24:08.890Z,1018.42
2018-01-15T05:25:09.307Z,1018.46
2018-01-15T05:26:09.723Z,1018.42
2018-01-15T05:27:10.139Z,1018.40
2018-01-15T05:28:10.557Z,1018.35
2018-01-15T05:29:10.975Z,1018.38
2018-01-15T05:30:11.390Z,1018.36
2018-01-15T05:31:11.804Z,1018.28
2018-01-15T05:32:12.213Z,1018.30
2018-01-15T05:33:12.652Z,1018.31
2018-01-15T05:34:13.060Z,1018.31
2018-01-15T05:35:13.464Z,1018.28
2018-01-15T05:36:13.879Z,1018.30
2018-01-15T05:37:14.294Z,1018.29
2018-01-15T05:38:14.716Z,1018.24
2018-01-15T05:39:15.127Z,1018.25
2018-01-15T05:40:15.543Z,1018.24
2018-01-15T05:41:15.959Z,1018.20
2018-01-15T05:42:16.403Z,1018.15
2018-01-15T05:43:16.868Z,1018.19
2018-01-15T05:44:17.209Z,1018.15
2018-01-15T05:45:17.625Z,1018.12
2018-01-15T05:46:18.040Z,1018.12
2018-01-15T05:47:18.455Z,1018.11
2018-01-15T05:48:18.873Z,1018.07
2018-01-15T05:49:19.289Z,1018.09
2018-01-15T05:50:19.704Z,1018.09
2018-01-15T05:51:20.126Z,1018.08
2018-01-15T05:52:20.538Z,1018.06
2018-01-15T05:53:20.967Z,1018.09
2018-01-15T05:54:21.371Z,1018.06
2018-01-15T05:55:21.788Z,1018.04
2018-01-15T05:56:22.200Z,1018.07
2018-01-15T05:57:22.614Z,1017.99
2018-01-15T05:58:23.031Z,1018.06
2018-01-15T05:59:23.455Z,1017.99
2018-01-15T06:00:23.862Z,1018.02
2018-01-15T06:01:24.279Z,1017.98
2018-01-15T06:02:24.706Z,1018.01
2018-01-15T06:03:25.121Z,1018.00
2018-01-15T06:04:25.537Z,1018.01
2018-01-15T06:05:25.946Z,1018.00
2018-01-15T06:06:26.370Z,1017.95
2018-01-15T06:07:26.780Z,1017.99
2018-01-15T06:08:27.196Z,1017.99
2018-01-15T06:09:27.620Z,1017.97
2018-01-15T06:12:01.158Z,1017.98
2018-01-15T06:13:01.562Z,1017.96
2018-01-15T06:14:57.130Z,1017.94
2018-01-15T06:15:57.542Z,1017.86
2018-01-15T06:17:52.191Z,1017.91
2018-01-15T06:18:52.538Z,1017.86
2018-01-15T06:20:47.108Z,1017.79
2018-01-15T06:21:47.524Z,1017.84
2018-01-15T06:23:42.163Z,1017.79
2018-01-15T06:24:42.574Z,1017.79
2018-01-15T06:26:37.206Z,1017.78
2018-01-15T06:27:37.573Z,1017.74
2018-01-15T06:29:32.158Z,1017.77
2018-01-15T06:30:32.561Z,1017.72
2018-01-15T06:32:27.134Z,1017.71
2018-01-15T06:33:27.550Z,1017.71
2018-01-15T06:35:22.136Z,1017.67
2018-01-15T06:36:22.534Z,1017.68
2018-01-15T06:38:17.109Z,1017.67
2018-01-15T06:39:17.524Z,1017.71
2018-01-15T06:43:00.097Z,1017.73
2018-01-15T06:44:00.499Z,1017.64
2018-01-15T06:45:55.121Z,1017.65
2018-01-15T06:46:55.527Z,1017.66
2018-01-15T06:48:50.126Z,1017.54
2018-01-15T06:49:50.552Z,1017.58
2018-01-15T06:51:45.120Z,1017.55
2018-01-15T06:54:42.741Z,1017.57
2018-01-15T06:55:43.140Z,1017.54
2018-01-15T06:57:38.694Z,1017.52
2018-01-15T06:58:39.117Z,1017.52
2018-01-15T06:59:39.617Z,1017.52
2018-01-15T07:05:45.682Z,1017.45
2018-01-15T07:06:46.075Z,1017.39
2018-01-15T07:08:40.631Z,1017.45
2018-01-15T07:09:41.048Z,1017.44
2018-01-15T07:10:41.539Z,1017.47
2018-01-15T07:11:41.885Z,1017.46
2018-01-15T07:12:42.298Z,1017.42
2018-01-15T07:13:42.713Z,1017.43
2018-01-15T07:14:43.134Z,1017.39
2018-01-15T07:15:43.545Z,1017.40
2018-01-15T07:16:43.965Z,1017.39
2018-01-15T07:17:44.375Z,1017.32
2018-01-15T07:18:44.792Z,1017.35
2018-01-15T07:19:45.208Z,1017.25
2018-01-15T07:20:45.626Z,1017.30
2018-01-15T07:21:46.042Z,1017.30
2018-01-15T07:22:46.458Z,1017.24
2018-01-15T07:23:46.872Z,1017.21
2018-01-15T07:24:47.293Z,1017.24
2018-01-15T07:25:47.701Z,1017.16
2018-01-15T07:26:48.123Z,1017.12
2018-01-15T07:27:48.536Z,1017.14
2018-01-15T07:28:48.950Z,1017.12
2018-01-15T07:29:49.377Z,1017.08
2018-01-15T07:30:49.788Z,1017.10
2018-01-15T07:31:50.202Z,1017.06
2018-01-15T07:32:50.619Z,1017.01
2018-01-15T07:33:51.026Z,1017.07
2018-01-15T07:34:51.449Z,1017.07
2018-01-15T07:35:51.857Z,1017.04
2018-01-15T07:36:52.280Z,1017.05
2018-01-15T07:37:52.696Z,1017.06
2018-01-15T07:38:53.110Z,1017.05
2018-01-15T07:39:53.533Z,1017.06
2018-01-15T07:40:53.946Z,1017.05
2018-01-15T07:41:54.362Z,1017.01
2018-01-15T07:42:54.776Z,1017.08
2018-01-15T07:43:55.217Z,1017.06
2018-01-15T07:44:55.603Z,1017.03
2018-01-15T07:45:56.015Z,1017.04
2018-01-15T07:46:56.438Z,1017.00
2018-01-15T07:47:56.849Z,1017.01
2018-01-15T07:48:57.269Z,1017.02
2018-01-15T07:49:57.695Z,1017.03
2018-01-15T07:50:58.108Z,1017.04
2018-01-15T07:51:58.509Z,1017.04
2018-01-15T07:52:58.925Z,1016.97
2018-01-15T07:53:59.373Z,1017.02
2018-01-15T07:54:59.754Z,1016.96
2018-01-15T07:56:00.171Z,1016.93
2018-01-15T07:57:00.592Z,1016.90
2018-01-15T07:58:01.004Z,1016.94
2018-01-15T07:59:01.421Z,1016.96
2018-01-15T08:00:01.836Z,1016.85
2018-01-15T08:01:02.252Z,1016.85
2018-01-15T08:02:02.668Z,1016.90
2018-01-15T08:03:03.083Z,1016.81
2018-01-15T08:04:03.498Z,1016.83
2018-01-15T08:05:03.918Z,1016.87
2018-01-15T08:06:04.332Z,1016.83
2018-01-15T08:07:04.748Z,1016.79
2018-01-15T08:08:05.166Z,1016.72
2018-01-15T08:09:05.580Z,1016.69
2018-01-15T08:10:05.996Z,1016.72
2018-01-15T08:11:06.415Z,1016.66
2018-01-15T08:12:06.832Z,1016.64
2018-01-15T08:13:07.247Z,1016.60
2018-01-15T08:14:07.660Z,1016.59
2018-01-15T08:15:08.078Z,1016.54
2018-01-15T08:16:08.546Z,1016.55
2018-01-15T08:17:08.911Z,1016.54
2018-01-15T08:18:09.326Z,1016.58
2018-01-15T08:19:09.745Z,1016.59
2018-01-15T08:20:10.158Z,1016.54
2018-01-15T08:21:10.575Z,1016.45
2018-01-15T08:22:10.992Z,1016.49
2018-01-15T08:23:11.407Z,1016.51
2018-01-15T08:24:11.826Z,1016.48
2018-01-15T08:25:12.243Z,1016.48
2018-01-15T08:26:12.656Z,1016.49
2018-01-15T08:27:13.074Z,1016.50
2018-01-15T08:28:13.491Z,1016.46
2018-01-15T08:29:14.001Z,1016.49
2018-01-15T08:30:14.321Z,1016.50
2018-01-15T08:31:14.746Z,1016.45
2018-01-15T08:32:15.184Z,1016.41
2018-01-15T08:33:15.643Z,1016.40
2018-01-15T08:34:15.992Z,1016.38
2018-01-15T08:35:16.409Z,1016.36
2018-01-15T08:36:16.822Z,1016.37
2018-01-15T08:37:17.270Z,1016.33
2018-01-15T08:38:17.649Z,1016.34
2018-01-15T08:39:18.081Z,1016.37
2018-01-15T08:40:18.495Z,1016.34
2018-01-15T08:41:18.904Z,1016.30
2018-01-15T08:42:19.319Z,1016.26
2018-01-15T08:43:19.746Z,1016.27
2018-01-15T08:44:20.156Z,1016.25
2018-01-15T08:45:20.577Z,1016.22
2018-01-15T08:46:20.990Z,1016.16
2018-01-15T08:47:21.418Z,1016.18
2018-01-15T08:48:21.870Z,1016.20
2018-01-15T08:49:22.232Z,1016.14
2018-01-15T08:50:31.524Z,1016.08
2018-01-15T08:51:23.092Z,1016.06
2018-01-15T08:52:23.513Z,1016.11
2018-01-15T08:53:23.915Z,1016.05
2018-01-15T08:54:24.326Z,1016.04
2018-01-15T08:55:24.736Z,1016.11
2018-01-15T08:56:25.157Z,1016.11
2018-01-15T08:57:25.598Z,1016.11
2018-01-15T08:58:25.996Z,1016.10
2018-01-15T08:59:26.406Z,1016.06
2018-01-15T09:00:26.823Z,1016.07
2018-01-15T09:01:27.248Z,1016.12
2018-01-15T09:02:27.652Z,1016.06
2018-01-15T09:03:28.071Z,1016.09
2018-01-15T09:04:28.486Z,1016.04
2018-01-15T09:05:28.913Z,1015.99
2018-01-15T09:06:29.318Z,1015.95
2018-01-15T09:07:29.743Z,1016.00
2018-01-15T09:08:30.179Z,1015.94
2018-01-15T09:09:30.579Z,1015.93
2018-01-15T09:10:30.988Z,1015.95
2018-01-15T09:11:31.431Z,1015.94
2018-01-15T09:12:31.829Z,1015.92
2018-01-15T09:13:32.237Z,1015.93
2018-01-15T09:14:32.660Z,1015.95
2018-01-15T09:15:33.103Z,1015.90
2018-01-15T09:16:33.517Z,1015.90
2018-01-15T09:17:33.915Z,1015.87
2018-01-15T09:18:34.324Z,1015.78
2018-01-15T09:19:34.758Z,1015.75
2018-01-15T09:20:35.159Z,1015.73
2018-01-15T09:21:35.589Z,1015.63
2018-01-15T09:22:35.993Z,1015.60
2018-01-15T09:23:36.408Z,1015.62
2018-01-15T09:24:36.847Z,1015.61
2018-01-15T09:25:37.265Z,1015.67
2018-01-15T09:26:37.677Z,1015.56
2018-01-15T09:27:38.090Z,1015.54
2018-01-15T09:28:38.512Z,1015.57
2018-01-15T09:29:38.926Z,1015.62
2018-01-15T09:30:39.340Z,1015.54
2018-01-15T09:31:39.754Z,1015.51
2018-01-15T09:32:40.174Z,1015.53
2018-01-15T09:33:40.588Z,1015.49
2018-01-15T09:34:41.003Z,1015.53
2018-01-15T09:35:41.441Z,1015.52
2018-01-15T09:36:41.836Z,1015.53
2018-01-15T09:37:42.253Z,1015.50
2018-01-15T09:38:42.679Z,1015.54
2018-01-15T09:39:43.089Z,1015.46
2018-01-15T09:40:43.515Z,1015.49
2018-01-15T09:41:43.924Z,1015.47
2018-01-15T09:42:44.343Z,1015.42
2018-01-15T09:43:44.760Z,1015.43
2018-01-15T09:44:45.185Z,1015.42
2018-01-15T09:45:45.622Z,1015.32
2018-01-15T09:46:46.034Z,1015.39
2018-01-15T09:47:46.433Z,1015.37
2018-01-15T09:48:46.846Z,1015.42
2018-01-15T09:49:47.266Z,1015.37
2018-01-15T09:50:47.687Z,1015.32
2018-01-15T09:51:48.117Z,1015.31
2018-01-15T09:52:48.530Z,1015.29
2018-01-15T09:53:48.937Z,1015.25
2018-01-15T09:54:49.366Z,1015.24
2018-01-15T09:55:49.785Z,1015.23
2018-01-15T09:56:50.197Z,1015.18
2018-01-15T09:57:50.610Z,1015.21
2018-01-15T09:58:51.029Z,1015.18
2018-01-15T09:59:51.449Z,1015.12
2018-01-15T10:00:51.866Z,1015.18
2018-01-15T10:01:52.286Z,1015.09
2018-01-15T10:02:52.703Z,1014.99
2018-01-15T10:03:53.138Z,1014.97
2018-01-15T10:04:53.543Z,1014.93
2018-01-15T10:05:53.973Z,1014.94
2018-01-15T10:06:54.388Z,1014.90
2018-01-15T10:07:54.871Z,1014.86
2018-01-15T10:08:55.241Z,1014.82
2018-01-15T10:09:55.654Z,1014.77
2018-01-15T10:10:56.104Z,1014.71
2018-01-15T10:11:56.490Z,1014.76
2018-01-15T10:12:56.938Z,1014.69
2018-01-15T10:13:57.420Z,1014.63
2018-01-15T10:14:57.744Z,1014.67
2018-01-15T10:15:58.186Z,1014.61
2018-01-15T10:16:58.598Z,1014.61
2018-01-15T10:17:59.049Z,1014.59
2018-01-15T10:18:59.450Z,1014.59
2018-01-15T10:19:59.879Z,1014.60
2018-01-15T10:21:00.296Z,1014.52
2018-01-15T10:22:00.718Z,1014.51
2018-01-15T10:23:01.142Z,1014.52
2018-01-15T10:24:01.568Z,1014.46
2018-01-15T10:25:01.988Z,1014.43
2018-01-15T10:26:02.412Z,1014.41
2018-01-15T10:27:02.837Z,1014.35
2018-01-15T10:28:03.269Z,1014.33
2018-01-15T10:29:03.712Z,1014.28
2018-01-15T10:30:04.139Z,1014.25
2018-01-15T10:31:04.543Z,1014.26
2018-01-15T10:32:04.959Z,1014.24
2018-01-15T10:33:05.384Z,1014.22
2018-01-15T10:35:46.051Z,1014.12
2018-01-15T10:36:55.258Z,1014.06
2018-01-15T10:38:40.845Z,1014.00
2018-01-15T10:39:41.283Z,1014.07
2018-01-15T10:41:35.935Z,1013.99
2018-01-15T10:42:36.338Z,1013.98
2018-01-15T10:44:31.969Z,1013.94
2018-01-15T10:47:05.463Z,1013.95
2018-01-15T10:48:05.900Z,1013.90
2018-01-15T10:50:00.486Z,1013.84
2018-01-15T10:51:00.902Z,1013.89
2018-01-15T10:52:55.528Z,1013.94
2018-01-15T10:53:55.945Z,1013.85
2018-01-15T10:55:50.571Z,1013.80
2018-01-15T10:56:50.976Z,1013.73
2018-01-15T10:58:45.596Z,1013.58
2018-01-15T10:59:46.003Z,1013.67
2018-01-15T11:01:40.623Z,1013.51
2018-01-15T11:02:41.073Z,1013.49
2018-01-15T11:04:35.695Z,1013.44
2018-01-15T11:05:36.100Z,1013.32
2018-01-15T11:07:30.725Z,1013.29
2018-01-15T11:08:31.147Z,1013.23
2018-01-15T11:10:25.800Z,1013.26
2018-01-15T11:11:26.208Z,1013.19
2018-01-15T11:13:21.451Z,1013.05
2018-01-15T11:14:21.203Z,1013.08
2018-01-15T11:16:15.834Z,1013.05
2018-01-15T11:17:16.236Z,1013.08
2018-01-15T11:19:11.809Z,1013.04
2018-01-15T11:21:51.362Z,1012.98
2018-01-15T11:22:51.838Z,1013.03
2018-01-15T11:24:46.374Z,1012.89
2018-01-15T11:25:46.781Z,1012.86
2018-01-15T11:27:41.365Z,1012.77
2018-01-15T11:28:41.798Z,1012.77
2018-01-15T11:30:40.126Z,1012.67
2018-01-15T11:33:13.594Z,1012.70
2018-01-15T11:34:14.022Z,1012.55
2018-01-15T11:36:08.684Z,1012.53
2018-01-15T11:37:09.028Z,1012.58
2018-01-15T11:38:09.465Z,1012.51
2018-01-15T11:39:09.882Z,1012.49
2018-01-15T11:40:10.306Z,1012.43
2018-01-15T11:41:10.728Z,1012.41
2018-01-15T11:42:11.155Z,1012.46
2018-01-15T11:43:11.598Z,1012.38
2018-01-15T11:44:12.009Z,1012.29
2018-01-15T11:45:12.445Z,1012.33
2018-01-15T11:46:12.860Z,1012.27
2018-01-15T11:47:13.280Z,1012.20
2018-01-15T11:48:13.756Z,1012.26
2018-01-15T11:49:14.132Z,1012.23
2018-01-15T11:50:14.565Z,1012.16
2018-01-15T11:51:14.986Z,1012.15
2018-01-15T11:52:15.417Z,1012.13
2018-01-15T11:53:15.831Z,1012.08
2018-01-15T11:54:16.264Z,1012.07
2018-01-15T11:55:16.719Z,1012.03
2018-01-15T11:56:17.116Z,1011.99
2018-01-15T11:57:17.537Z,1012.01
2018-01-15T11:58:17.968Z,1012.02
2018-01-15T11:59:18.390Z,1011.95
2018-01-15T12:00:19.772Z,1011.88
2018-01-15T12:01:19.229Z,1011.89
2018-01-15T12:02:19.675Z,1011.87
2018-01-15T12:03:20.202Z,1011.89
2018-01-15T12:04:20.507Z,1011.92
2018-01-15T12:05:20.931Z,1011.80
2018-01-15T12:06:21.370Z,1011.83
2018-01-15T12:07:21.795Z,1011.76
2018-01-15T12:08:22.197Z,1011.79
2018-01-15T12:09:22.633Z,1011.85
2018-01-15T12:10:23.045Z,1011.88
2018-01-15T12:11:23.468Z,1011.84
2018-01-15T12:12:23.896Z,1011.84
2018-01-15T12:13:24.311Z,1011.79
2018-01-15T12:14:24.732Z,1011.71
2018-01-15T12:15:25.152Z,1011.74
2018-01-15T12:16:25.620Z,1011.68
2018-01-15T12:17:26.029Z,1011.54
2018-01-15T12:18:26.419Z,1011.53
2018-01-15T12:19:26.834Z,1011.53
2018-01-15T12:20:27.277Z,1011.55
2018-01-15T12:21:27.676Z,1011.46
2018-01-15T12:22:28.124Z,1011.40
2018-01-15T12:23:28.516Z,1011.39
2018-01-15T12:24:28.938Z,1011.30
2018-01-15T12:25:29.359Z,1011.22
2018-01-15T12:26:29.780Z,1011.30
2018-01-15T12:27:30.215Z,1011.18
2018-01-15T12:28:30.630Z,1011.20
2018-01-15T12:29:31.052Z,1011.13
2018-01-15T12:30:31.466Z,1011.28
2018-01-15T12:31:31.879Z,1011.12
2018-01-15T12:32:32.301Z,1011.13
2018-01-15T12:33:32.718Z,1011.15
2018-01-15T12:34:33.145Z,1011.06
2018-01-15T12:35:33.567Z,1011.08
2018-01-15T12:36:33.982Z,1010.98
2018-01-15T12:37:34.411Z,1010.87
2018-01-15T12:38:34.828Z,1010.91
2018-01-15T12:39:35.241Z,1010.82
2018-01-15T12:40:35.689Z,1010.89
2018-01-15T12:41:36.082Z,1010.84
2018-01-15T12:42:36.502Z,1010.85
2018-01-15T12:43:36.923Z,1010.86
2018-01-15T12:44:37.342Z,1010.92
2018-01-15T12:45:37.765Z,1010.87
2018-01-15T12:46:38.185Z,1010.83
2018-01-15T12:47:38.600Z,1010.77
2018-01-15T12:48:39.022Z,1010.77
2018-01-15T12:49:39.441Z,1010.77
2018-01-15T12:50:39.860Z,1010.78
2018-01-15T12:51:40.303Z,1010.77
2018-01-15T12:52:40.710Z,1010.73
2018-01-15T12:53:41.129Z,1010.69
2018-01-15T12:54:41.547Z,1010.66
2018-01-15T12:55:41.973Z,1010.68
2018-01-15T12:56:42.387Z,1010.62
2018-01-15T12:57:42.806Z,1010.52
2018-01-15T12:58:43.226Z,1010.66
2018-01-15T12:59:43.644Z,1010.51
2018-01-15T13:00:44.076Z,1010.43
2018-01-15T13:01:44.484Z,1010.41
2018-01-15T13:02:44.903Z,1010.44
2018-01-15T13:03:45.322Z,1010.47
2018-01-15T13:04:45.742Z,1010.34
2018-01-15T13:05:46.164Z,1010.47
2018-01-15T13:06:46.587Z,1010.48
2018-01-15T13:07:47.012Z,1010.46
2018-01-15T13:08:47.423Z,1010.39
2018-01-15T13:09:47.843Z,1010.27
2018-01-15T13:10:48.263Z,1010.27
2018-01-15T13:11:48.681Z,1010.34
2018-01-15T13:12:49.108Z,1010.22
2018-01-15T13:13:49.528Z,1010.22
2018-01-15T13:14:49.943Z,1010.14
2018-01-15T13:15:50.366Z,1010.07
2018-01-15T13:16:50.783Z,1010.11
2018-01-15T13:17:51.205Z,1010.00
2018-01-15T13:18:51.620Z,1009.96
2018-01-15T13:19:52.042Z,1009.92
2018-01-15T13:20:52.466Z,1009.91
2018-01-15T13:21:52.886Z,1009.83
2018-01-15T13:22:53.304Z,1009.85
2018-01-15T13:23:53.722Z,1009.84
2018-01-15T13:24:54.142Z,1009.89
2018-01-15T13:25:54.596Z,1009.89
2018-01-15T13:26:54.984Z,1009.89
2018-01-15T13:27:55.402Z,1009.97
2018-01-15T13:28:55.824Z,1009.97
2018-01-15T13:29:56.239Z,1009.94
2018-01-15T13:30:56.713Z,1009.90
2018-01-15T13:31:57.088Z,1009.90
2018-01-15T13:32:57.501Z,1010.02
2018-01-15T13:33:57.919Z,1009.92
2018-01-15T13:34:58.337Z,1009.92
2018-01-15T13:35:58.769Z,1009.93
2018-01-15T13:36:59.184Z,1009.90
2018-01-15T13:37:59.633Z,1009.95
2018-01-15T13:39:00.030Z,1009.88
2018-01-15T13:40:00.438Z,1009.97
2018-01-15T13:41:00.867Z,1009.89
2018-01-15T13:42:01.295Z,1009.83